createdAt,value
2022-08-16T00:01:33.876Z,98702.28
2022-08-16T00:04:06.388Z,98699.47
2022-08-16T00:06:39.476Z,98708.25
2022-08-16T00:09:07.676Z,98710.50
2022-08-16T00:11:41.390Z,98711.06
2022-08-16T00:14:12.790Z,98707.38
2022-08-16T00:17:06.637Z,98711.50
2022-08-16T00:19:41.537Z,98715.69
2022-08-16T00:22:13.499Z,98701.38
2022-08-16T00:25:01.283Z,98701.22
2022-08-16T00:27:30.790Z,98700.09
2022-08-16T00:30:00.851Z,98699.09
2022-08-16T00:32:38.952Z,98697.00
2022-08-16T00:35:13.786Z,98705.72
2022-08-16T00:37:57.467Z,98694.75
2022-08-16T00:40:43.659Z,98703.06
2022-08-16T00:43:43.481Z,98712.78
2022-08-16T00:46:33.391Z,98705.84
2022-08-16T00:49:17.507Z,98703.16
2022-08-16T00:51:55.002Z,98701.91
2022-08-16T00:54:28.073Z,98704.84
2022-08-16T00:57:00.056Z,98714.31
2022-08-16T00:59:35.912Z,98716.00
2022-08-16T01:03:04.092Z,98715.75
2022-08-16T01:05:35.022Z,98711.38
2022-08-16T01:08:34.930Z,98708.97
2022-08-16T01:11:09.885Z,98714.06
2022-08-16T01:13:41.478Z,98706.69
2022-08-16T01:16:20.002Z,98707.53
2022-08-16T01:19:18.335Z,98709.47
2022-08-16T01:22:48.692Z,98707.38
2022-08-16T01:25:12.112Z,98714.53
2022-08-16T01:27:47.419Z,98713.38
2022-08-16T01:30:27.125Z,98711.25
2022-08-16T01:33:01.834Z,98715.34
2022-08-16T01:35:52.657Z,98707.84
2022-08-16T01:38:28.730Z,98708.84
2022-08-16T01:41:05.674Z,98710.94
2022-08-16T01:43:40.499Z,98712.84
2022-08-16T01:46:37.243Z,98705.50
2022-08-16T01:49:43.668Z,98705.03
2022-08-16T01:52:30.570Z,98701.41
2022-08-16T01:55:07.113Z,98715.81
2022-08-16T01:57:34.290Z,98713.75
2022-08-16T02:00:19.405Z,98721.16
2022-08-16T02:02:52.191Z,98714.28
2022-08-16T02:05:30.777Z,98717.00
2022-08-16T02:07:59.110Z,98717.13
2022-08-16T02:10:28.468Z,98718.75
2022-08-16T02:13:00.804Z,98715.44
2022-08-16T02:15:37.894Z,98717.84
2022-08-16T02:18:12.716Z,98719.72
2022-08-16T02:20:42.653Z,98722.22
2022-08-16T02:23:13.096Z,98719.41
2022-08-16T02:25:51.825Z,98721.16
2022-08-16T02:28:24.781Z,98721.91
2022-08-16T02:30:56.794Z,98734.28
2022-08-16T02:33:43.548Z,98729.66
2022-08-16T02:36:14.377Z,98729.66
2022-08-16T02:39:02.876Z,98725.28
2022-08-16T02:41:40.792Z,98723.84
2022-08-16T02:44:13.913Z,98722.41
2022-08-16T02:46:49.890Z,98720.78
2022-08-16T02:49:22.595Z,98712.69
2022-08-16T02:52:11.874Z,98711.41
2022-08-16T02:55:06.922Z,98714.59
2022-08-16T02:57:35.073Z,98716.94
2022-08-16T03:00:33.738Z,98705.56
2022-08-16T03:03:03.609Z,98714.59
2022-08-16T03:05:32.824Z,98715.13
2022-08-16T03:08:02.575Z,98713.56
2022-08-16T03:10:33.318Z,98711.66
2022-08-16T03:13:12.379Z,98716.66
2022-08-16T03:15:42.002Z,98717.25
2022-08-16T03:18:12.593Z,98723.00
2022-08-16T03:20:55.446Z,98728.22
2022-08-16T03:23:23.441Z,98732.16
2022-08-16T03:25:57.450Z,98748.94
2022-08-16T03:28:32.609Z,98746.25
2022-08-16T03:30:59.731Z,98758.16
2022-08-16T03:33:37.299Z,98754.03
2022-08-16T03:36:29.787Z,98766.25
2022-08-16T03:38:54.022Z,98767.59
2022-08-16T03:41:29.629Z,98766.38
2022-08-16T03:44:13.740Z,98763.38
2022-08-16T03:47:03.180Z,98762.88
2022-08-16T03:49:37.209Z,98774.16
2022-08-16T03:52:05.876Z,98774.91
2022-08-16T03:54:36.327Z,98768.22
2022-08-16T03:57:05.283Z,98782.16
2022-08-16T03:59:39.866Z,98785.59
2022-08-16T04:02:22.222Z,98780.22
2022-08-16T04:04:50.436Z,98786.03
2022-08-16T04:07:17.929Z,98789.94
2022-08-16T04:09:45.964Z,98802.53
2022-08-16T04:12:53.904Z,98804.50
2022-08-16T04:15:13.563Z,98802.53
2022-08-16T04:17:45.329Z,98804.59
2022-08-16T04:20:33.870Z,98804.84
2022-08-16T04:23:23.710Z,98809.56
2022-08-16T04:25:52.527Z,98804.59
2022-08-16T04:28:54.530Z,98802.25
2022-08-16T04:31:33.527Z,98796.44
2022-08-16T04:34:12.990Z,98803.75
2022-08-16T04:36:41.247Z,98797.91
2022-08-16T04:39:16.375Z,98808.13
2022-08-16T04:41:56.937Z,98812.50
2022-08-16T04:44:53.758Z,98800.19
2022-08-16T04:47:33.001Z,98802.00
2022-08-16T04:50:30.387Z,98804.88
2022-08-16T04:53:02.628Z,98797.53
2022-08-16T04:55:38.148Z,98805.66
2022-08-16T04:58:45.128Z,98797.13
2022-08-16T05:00:55.064Z,98797.47
2022-08-16T05:03:30.346Z,98800.34
2022-08-16T05:06:09.378Z,98800.28
2022-08-16T05:08:36.713Z,98805.69
2022-08-16T05:11:09.895Z,98806.06
2022-08-16T05:13:44.602Z,98813.19
2022-08-16T05:16:21.580Z,98812.13
2022-08-16T05:18:52.862Z,98816.72
2022-08-16T05:21:38.577Z,98815.44
2022-08-16T05:24:09.052Z,98816.00
2022-08-16T05:26:43.005Z,98816.63
2022-08-16T05:29:15.222Z,98820.38
2022-08-16T05:31:44.278Z,98824.53
2022-08-16T05:34:17.810Z,98823.56
2022-08-16T05:36:51.266Z,98822.44
2022-08-16T05:39:22.642Z,98824.97
2022-08-16T05:41:53.234Z,98815.69
2022-08-16T05:44:25.069Z,98807.63
2022-08-16T05:47:01.831Z,98818.47
2022-08-16T05:49:38.364Z,98816.19
2022-08-16T05:52:11.135Z,98823.19
2022-08-16T05:54:47.175Z,98822.34
2022-08-16T05:57:17.624Z,98823.97
2022-08-16T05:59:59.513Z,98820.94
2022-08-16T06:02:33.635Z,98830.03
2022-08-16T06:05:00.782Z,98824.72
2022-08-16T06:07:29.451Z,98828.94
2022-08-16T06:10:01.229Z,98816.19
2022-08-16T06:12:33.389Z,98820.84
2022-08-16T06:15:07.884Z,98824.16
2022-08-16T06:17:43.186Z,98829.53
2022-08-16T06:20:24.032Z,98832.25
2022-08-16T06:23:03.346Z,98822.91
2022-08-16T06:25:36.611Z,98815.22
2022-08-16T06:28:09.411Z,98819.19
2022-08-16T06:30:49.010Z,98827.97
2022-08-16T06:33:28.513Z,98817.59
2022-08-16T06:35:59.647Z,98836.50
2022-08-16T06:38:33.770Z,98834.50
2022-08-16T06:41:07.164Z,98841.97
2022-08-16T06:43:42.104Z,98845.75
2022-08-16T06:46:31.746Z,98848.69
2022-08-16T06:48:59.653Z,98849.97
2022-08-16T06:51:45.681Z,98856.38
2022-08-16T06:54:15.072Z,98853.78
2022-08-16T06:56:44.523Z,98855.97
2022-08-16T06:59:13.343Z,98854.16
2022-08-16T07:01:43.080Z,98854.50
2022-08-16T07:04:31.873Z,98851.31
2022-08-16T07:07:01.817Z,98849.84
2022-08-16T07:09:30.810Z,98858.09
2022-08-16T07:12:03.440Z,98858.25
2022-08-16T07:14:33.370Z,98868.38
2022-08-16T07:17:08.210Z,98868.56
2022-08-16T07:20:02.907Z,98871.41
2022-08-16T07:22:36.744Z,98859.22
2022-08-16T07:25:30.095Z,98864.38
2022-08-16T07:27:57.184Z,98866.50
2022-08-16T07:30:45.139Z,98861.81
2022-08-16T07:33:52.897Z,98866.47
2022-08-16T07:36:07.196Z,98870.53
2022-08-16T07:38:34.910Z,98871.69
2022-08-16T07:41:10.152Z,98880.91
2022-08-16T07:43:41.476Z,98875.88
2022-08-16T07:46:38.752Z,98871.91
2022-08-16T07:49:02.034Z,98870.78
2022-08-16T07:51:35.532Z,98865.41
2022-08-16T07:54:20.554Z,98872.50
2022-08-16T07:56:56.031Z,98881.03
2022-08-16T07:59:43.089Z,98875.78
2022-08-16T08:02:20.055Z,98875.13
2022-08-16T08:04:49.259Z,98877.16
2022-08-16T08:07:19.469Z,98886.25
2022-08-16T08:10:02.727Z,98886.00
2022-08-16T08:12:35.884Z,98872.97
2022-08-16T08:15:09.570Z,98873.81
2022-08-16T08:17:43.048Z,98874.84
2022-08-16T08:20:26.306Z,98876.78
2022-08-16T08:23:01.110Z,98870.28
2022-08-16T08:25:54.382Z,98876.03
2022-08-16T08:28:20.012Z,98881.75
2022-08-16T08:30:51.967Z,98874.16
2022-08-16T08:33:31.863Z,98884.34
2022-08-16T08:36:07.644Z,98877.69
2022-08-16T08:38:48.106Z,98882.50
2022-08-16T08:41:42.501Z,98885.34
2022-08-16T08:44:28.930Z,98887.50
2022-08-16T08:47:01.518Z,98879.69
2022-08-16T08:49:50.592Z,98881.06
2022-08-16T08:52:34.171Z,98884.84
2022-08-16T08:55:10.509Z,98882.69
2022-08-16T08:57:46.161Z,98877.56
2022-08-16T09:00:27.067Z,98876.44
2022-08-16T09:03:04.250Z,98877.41
2022-08-16T09:05:37.430Z,98881.00
2022-08-16T09:08:06.295Z,98885.03
2022-08-16T09:10:39.485Z,98883.63
2022-08-16T09:13:32.889Z,98886.81
2022-08-16T09:16:02.614Z,98873.72
2022-08-16T09:18:36.882Z,98884.06
2022-08-16T09:21:09.458Z,98883.72
2022-08-16T09:23:37.801Z,98879.31
2022-08-16T09:26:44.907Z,98881.59
2022-08-16T09:29:15.505Z,98873.75
2022-08-16T09:31:45.382Z,98865.81
2022-08-16T09:34:24.511Z,98870.84
2022-08-16T09:37:00.257Z,98866.66
2022-08-16T09:39:27.887Z,98869.63
2022-08-16T09:42:16.388Z,98872.97
2022-08-16T09:45:10.923Z,98867.47
2022-08-16T09:47:57.448Z,98871.91
2022-08-16T09:50:36.694Z,98864.91
2022-08-16T09:53:16.648Z,98864.03
2022-08-16T09:55:49.402Z,98865.91
2022-08-16T09:58:41.343Z,98866.44
2022-08-16T10:01:16.864Z,98870.81
2022-08-16T10:04:02.047Z,98864.97
2022-08-16T10:06:34.244Z,98879.16
2022-08-16T10:09:08.208Z,98874.47
2022-08-16T10:12:10.958Z,98870.72
2022-08-16T10:14:40.938Z,98872.44
2022-08-16T10:17:17.676Z,98872.22
2022-08-16T10:19:47.272Z,98871.19
2022-08-16T10:22:25.527Z,98869.63
2022-08-16T10:27:17.252Z,98876.59
2022-08-16T10:28:28.263Z,98874.19
2022-08-16T10:31:08.054Z,98877.94
2022-08-16T10:33:46.623Z,98878.63
2022-08-16T10:36:38.673Z,98870.34
2022-08-16T10:39:14.367Z,98869.28
2022-08-16T10:42:08.719Z,98872.06
2022-08-16T10:44:42.481Z,98876.63
2022-08-16T10:47:12.150Z,98878.44
2022-08-16T10:49:41.487Z,98873.97
2022-08-16T10:52:18.883Z,98874.88
2022-08-16T10:57:41.900Z,98881.22
2022-08-16T11:00:21.342Z,98876.09
2022-08-16T11:02:59.982Z,98868.53
2022-08-16T11:05:59.076Z,98871.84
2022-08-16T11:08:40.739Z,98875.88
2022-08-16T11:11:19.671Z,98886.91
2022-08-16T11:14:05.963Z,98884.75
2022-08-16T11:19:30.413Z,98893.06
2022-08-16T11:22:38.543Z,98883.38
2022-08-16T11:25:11.506Z,98890.97
2022-08-16T11:27:35.918Z,98886.94
2022-08-16T11:30:12.126Z,98888.94
2022-08-16T11:32:44.535Z,98890.56
2022-08-16T11:35:17.228Z,98883.28
2022-08-16T11:38:47.577Z,98886.19
2022-08-16T11:40:52.399Z,98881.09
2022-08-16T11:43:24.949Z,98890.22
2022-08-16T11:45:57.046Z,98892.44
2022-08-16T11:48:28.794Z,98878.91
2022-08-16T11:50:57.521Z,98876.91
2022-08-16T11:53:25.427Z,98875.09
2022-08-16T11:56:00.687Z,98874.28
2022-08-16T11:58:32.005Z,98867.09
2022-08-16T12:01:03.158Z,98875.31
2022-08-16T12:03:35.076Z,98868.84
2022-08-16T12:06:25.583Z,98863.00
2022-08-16T12:09:02.308Z,98863.13
2022-08-16T12:11:45.207Z,98860.28
2022-08-16T12:14:23.303Z,98860.53
2022-08-16T12:16:55.946Z,98865.72
2022-08-16T12:19:35.199Z,98846.91
2022-08-16T12:22:19.713Z,98846.19
2022-08-16T12:24:51.879Z,98848.28
2022-08-16T12:27:25.706Z,98857.53
2022-08-16T12:29:54.121Z,98843.03
2022-08-16T12:32:37.429Z,98846.00
2022-08-16T12:35:21.396Z,98847.28
2022-08-16T12:37:56.604Z,98843.78
2022-08-16T12:40:32.642Z,98848.47
2022-08-16T12:43:02.674Z,98848.22
2022-08-16T12:45:34.630Z,98844.09
2022-08-16T12:48:36.829Z,98842.34
2022-08-16T12:51:19.937Z,98845.13
2022-08-16T12:54:02.184Z,98848.97
2022-08-16T12:56:36.277Z,98841.81
2022-08-16T12:59:14.745Z,98846.56
2022-08-16T13:01:48.104Z,98840.16
2022-08-16T13:04:33.191Z,98844.53
2022-08-16T13:09:42.170Z,98835.72
2022-08-16T13:12:25.106Z,98833.28
2022-08-16T13:14:54.092Z,98831.78
2022-08-16T13:17:26.509Z,98830.25
2022-08-16T13:20:07.260Z,98826.06
2022-08-16T13:25:20.800Z,98817.75
2022-08-16T13:28:02.148Z,98802.56
2022-08-16T13:30:44.791Z,98812.31
2022-08-16T13:33:18.266Z,98808.25
2022-08-16T13:35:56.021Z,98798.34
2022-08-16T13:38:25.918Z,98793.28
2022-08-16T13:40:56.673Z,98792.78
2022-08-16T13:43:27.219Z,98787.84
2022-08-16T13:45:56.539Z,98792.22
2022-08-16T13:48:42.518Z,98787.94
2022-08-16T13:51:15.851Z,98782.47
2022-08-16T13:53:46.118Z,98784.63
2022-08-16T13:56:25.154Z,98792.72
2022-08-16T13:58:54.743Z,98794.16
2022-08-16T14:01:32.277Z,98803.25
2022-08-16T14:04:05.637Z,98800.97
2022-08-16T14:06:42.848Z,98798.03
2022-08-16T14:09:13.092Z,98799.97
2022-08-16T14:11:53.892Z,98802.91
2022-08-16T14:14:28.526Z,98810.16
2022-08-16T14:17:02.995Z,98797.69
2022-08-16T14:19:31.264Z,98810.97
2022-08-16T14:22:30.790Z,98801.16
2022-08-16T14:25:00.096Z,98792.66
2022-08-16T14:27:30.635Z,98791.28
2022-08-16T14:29:59.576Z,98792.34
2022-08-16T14:32:34.582Z,98800.38
2022-08-16T14:35:11.993Z,98798.81
2022-08-16T14:37:43.418Z,98807.91
2022-08-16T14:40:15.481Z,98801.56
2022-08-16T14:42:51.284Z,98790.28
2022-08-16T14:45:24.156Z,98798.34
2022-08-16T14:47:53.798Z,98797.59
2022-08-16T14:50:26.576Z,98799.63
2022-08-16T14:52:58.884Z,98800.38
2022-08-16T14:55:34.831Z,98792.19
2022-08-16T14:58:28.349Z,98797.66
2022-08-16T15:01:13.725Z,98789.16
2022-08-16T15:03:49.120Z,98798.44
2022-08-16T15:06:22.698Z,98790.78
2022-08-16T15:08:53.624Z,98803.47
2022-08-16T15:11:23.507Z,98795.66
2022-08-16T15:13:53.603Z,98800.34
2022-08-16T15:16:21.966Z,98799.06
2022-08-16T15:19:10.340Z,98798.59
2022-08-16T15:21:38.543Z,98800.47
2022-08-16T15:24:16.820Z,98792.88
2022-08-16T15:26:49.905Z,98791.19
2022-08-16T15:29:20.078Z,98812.03
2022-08-16T15:31:48.488Z,98806.09
2022-08-16T15:34:40.375Z,98800.59
2022-08-16T15:37:09.471Z,98808.81
2022-08-16T15:39:39.617Z,98811.44
2022-08-16T15:42:11.061Z,98816.72
2022-08-16T15:44:52.216Z,98817.19
2022-08-16T15:47:26.429Z,98819.09
2022-08-16T15:50:06.595Z,98819.06
2022-08-16T15:52:38.348Z,98822.72
2022-08-16T15:55:23.683Z,98819.63
2022-08-16T15:57:58.985Z,98828.56
2022-08-16T16:00:34.387Z,98819.53
2022-08-16T16:03:08.945Z,98826.66
2022-08-16T16:05:47.881Z,98832.00
2022-08-16T16:08:25.604Z,98834.91
2022-08-16T16:11:07.331Z,98830.53
2022-08-16T16:13:35.515Z,98837.03
2022-08-16T16:16:04.567Z,98836.22
2022-08-16T16:18:40.542Z,98832.47
2022-08-16T16:21:12.467Z,98834.72
2022-08-16T16:23:54.814Z,98829.09
2022-08-16T16:26:26.708Z,98836.53
2022-08-16T16:29:08.765Z,98838.13
2022-08-16T16:31:44.063Z,98843.03
2022-08-16T16:34:26.480Z,98833.88
2022-08-16T16:37:00.184Z,98837.69
2022-08-16T16:39:32.559Z,98838.72
2022-08-16T16:42:00.275Z,98847.53
2022-08-16T16:44:33.667Z,98843.50
2022-08-16T16:47:07.168Z,98842.41
2022-08-16T16:49:42.905Z,98834.69
2022-08-16T16:52:43.611Z,98828.16
2022-08-16T16:55:10.413Z,98831.72
2022-08-16T16:58:35.255Z,98840.53
2022-08-16T17:01:09.949Z,98840.88
2022-08-16T17:03:53.556Z,98842.38
2022-08-16T17:06:21.083Z,98842.53
2022-08-16T17:11:40.928Z,98843.50
2022-08-16T17:14:32.376Z,98845.78
2022-08-16T17:17:08.588Z,98849.88
2022-08-16T17:19:41.324Z,98850.53
2022-08-16T17:22:14.648Z,98858.03
2022-08-16T17:24:56.191Z,98869.81
2022-08-16T17:27:33.998Z,98862.09
2022-08-16T17:30:14.815Z,98863.44
2022-08-16T17:32:48.933Z,98861.00
2022-08-16T17:35:55.665Z,98860.63
2022-08-16T17:38:33.059Z,98866.22
2022-08-16T17:39:26.016Z,98848.31
2022-08-16T17:41:08.088Z,98863.72
2022-08-16T17:43:44.607Z,98875.72
2022-08-16T17:46:50.852Z,98882.34
2022-08-16T17:49:16.422Z,98874.94
2022-08-16T17:51:44.647Z,98887.63
2022-08-16T17:54:18.492Z,98880.09
2022-08-16T17:57:00.535Z,98874.66
2022-08-16T17:59:29.175Z,98880.13
2022-08-16T18:01:57.596Z,98868.78
2022-08-16T18:04:48.902Z,98876.34
2022-08-16T18:07:19.428Z,98877.56
2022-08-16T18:09:54.608Z,98884.66
2022-08-16T18:12:44.274Z,98893.84
2022-08-16T18:15:17.299Z,98891.91
2022-08-16T18:17:44.770Z,98886.66
2022-08-16T18:20:38.062Z,98891.59
2022-08-16T18:23:10.420Z,98892.78
2022-08-16T18:25:49.350Z,98893.91
2022-08-16T18:28:25.542Z,98895.75
2022-08-16T18:31:01.084Z,98905.53
2022-08-16T18:33:43.837Z,98903.81
2022-08-16T18:36:20.882Z,98903.56
2022-08-16T18:39:16.493Z,98907.88
2022-08-16T18:41:55.042Z,98914.69
2022-08-16T18:44:31.068Z,98918.56
2022-08-16T18:47:00.577Z,98917.59
2022-08-16T18:49:27.862Z,98915.41
2022-08-16T18:52:07.165Z,98916.72
2022-08-16T18:55:03.147Z,98922.16
2022-08-16T18:57:31.582Z,98926.00
2022-08-16T19:00:15.733Z,98926.00
2022-08-16T19:02:57.463Z,98925.34
2022-08-16T19:05:42.157Z,98928.13
2022-08-16T19:08:14.486Z,98924.00
2022-08-16T19:10:48.866Z,98928.56
2022-08-16T19:13:23.381Z,98930.59
2022-08-16T19:15:54.661Z,98940.91
2022-08-16T19:18:24.971Z,98932.38
2022-08-16T19:20:56.405Z,98928.09
2022-08-16T19:24:21.404Z,98928.72
2022-08-16T19:26:50.095Z,98933.53
2022-08-16T19:29:31.290Z,98939.75
2022-08-16T19:32:34.994Z,98934.13
2022-08-16T19:35:11.707Z,98957.06
2022-08-16T19:38:15.426Z,98958.13
2022-08-16T19:40:48.346Z,98958.84
2022-08-16T19:43:33.546Z,98964.25
2022-08-16T19:46:06.793Z,98966.81
2022-08-16T19:48:35.116Z,98964.13
2022-08-16T19:51:03.706Z,98955.34
2022-08-16T19:53:31.655Z,98954.31
2022-08-16T19:56:07.287Z,98956.88
2022-08-16T19:58:34.724Z,98956.84
2022-08-16T20:01:02.256Z,98958.88
2022-08-16T20:03:31.871Z,98961.59
2022-08-16T20:06:07.691Z,98965.78
2022-08-16T20:09:06.524Z,98954.47
2022-08-16T20:11:46.780Z,98951.25
2022-08-16T20:14:24.230Z,98954.97
2022-08-16T20:17:00.349Z,98958.84
2022-08-16T20:19:39.956Z,98947.78
2022-08-16T20:22:52.555Z,98958.88
2022-08-16T20:25:28.028Z,98954.06
2022-08-16T20:27:56.478Z,98954.00
2022-08-16T20:30:33.049Z,98962.75
2022-08-16T20:33:14.429Z,98955.63
2022-08-16T20:35:46.599Z,98966.59
2022-08-16T20:38:15.731Z,98963.75
2022-08-16T20:40:42.965Z,98965.66
2022-08-16T20:43:14.707Z,98968.66
2022-08-16T20:45:44.747Z,98970.66
2022-08-16T20:48:11.995Z,98983.38
2022-08-16T20:50:40.461Z,98974.94
2022-08-16T20:53:08.470Z,98983.25
2022-08-16T20:55:37.855Z,98980.84
2022-08-16T20:58:05.009Z,98982.59
2022-08-16T21:00:33.881Z,98971.91
2022-08-16T21:03:13.337Z,98981.91
2022-08-16T21:05:40.475Z,98985.28
2022-08-16T21:08:52.469Z,98988.03
2022-08-16T21:11:24.164Z,98997.88
2022-08-16T21:13:51.313Z,98991.03
2022-08-16T21:16:27.367Z,98996.63
2022-08-16T21:19:02.995Z,98995.31
2022-08-16T21:21:57.812Z,98988.72
2022-08-16T21:24:26.441Z,98992.38
2022-08-16T21:26:59.558Z,98995.78
2022-08-16T21:29:43.106Z,98986.19
2022-08-16T21:32:19.395Z,98991.75
2022-08-16T21:35:25.815Z,98991.81
2022-08-16T21:38:28.590Z,98991.91
2022-08-16T21:40:53.166Z,98990.31
2022-08-16T21:43:23.324Z,98988.84
2022-08-16T21:46:03.629Z,98994.94
2022-08-16T21:48:44.017Z,98988.56
2022-08-16T21:51:14.456Z,98996.63
2022-08-16T21:53:43.490Z,99009.69
2022-08-16T21:56:16.596Z,99003.91
2022-08-16T21:59:11.388Z,98996.75
2022-08-16T22:01:42.357Z,99004.38
2022-08-16T22:04:36.875Z,98998.59
2022-08-16T22:07:04.067Z,99000.56
2022-08-16T22:09:40.026Z,99004.25
2022-08-16T22:12:08.952Z,99006.09
2022-08-16T22:14:36.266Z,99005.81
2022-08-16T22:17:07.521Z,99003.53
2022-08-16T22:19:43.192Z,99000.00
2022-08-16T22:22:16.541Z,99001.84
2022-08-16T22:24:53.182Z,99001.28
2022-08-16T22:27:33.874Z,98994.72
2022-08-16T22:30:01.117Z,98996.69
2022-08-16T22:32:41.093Z,98995.56
2022-08-16T22:35:12.510Z,98997.59
2022-08-16T22:38:46.433Z,98993.94
2022-08-16T22:40:46.328Z,98995.91
2022-08-16T22:43:15.145Z,98993.09
2022-08-16T22:45:47.673Z,99000.44
2022-08-16T22:48:20.675Z,99000.16
2022-08-16T22:51:04.745Z,98998.75
2022-08-16T22:53:32.803Z,98994.06
2022-08-16T22:56:06.513Z,98995.06
2022-08-16T22:58:36.244Z,99000.97
2022-08-16T23:01:06.197Z,98996.00
2022-08-16T23:03:33.890Z,98997.34
2022-08-16T23:06:01.240Z,98989.78
2022-08-16T23:08:35.038Z,98995.97
2022-08-16T23:11:21.476Z,98994.56
2022-08-16T23:13:54.547Z,98997.09
2022-08-16T23:16:33.662Z,98986.78
2022-08-16T23:19:09.234Z,98995.56
2022-08-16T23:21:47.234Z,98983.03
2022-08-16T23:24:19.547Z,98981.78
2022-08-16T23:26:49.259Z,98987.72
2022-08-16T23:29:26.294Z,98995.63
2022-08-16T23:32:11.845Z,98984.63
2022-08-16T23:34:39.126Z,98989.00
2022-08-16T23:37:30.590Z,98989.69
2022-08-16T23:40:06.615Z,98988.56
2022-08-16T23:42:56.843Z,98989.69
2022-08-16T23:45:34.029Z,98992.38
2022-08-16T23:48:14.394Z,98988.84
2022-08-16T23:50:52.255Z,98996.47
2022-08-16T23:53:28.086Z,98998.44
2022-08-16T23:56:02.293Z,98987.25
2022-08-16T23:58:38.007Z,98997.25
